TAF and METAR

METAR for Martín Miguel de Güemes International Airport

SASA 161200Z 00000KT CAVOK 05/03 Q1025
Report created 16. aug 14:00
wind 0 knots from N (000°) Clear sky Temperature 5° with dewpoint at 3° (Humidity 86.89%) Pressure 1025 hPa

TAF for Martín Miguel de Güemes International Airport

TAF SASA 161100Z 1612/1712 05005KT CAVOK TX22/1615Z TN06/1710Z BECMG 1618/1621 18010KT SCT030
Report created 16. aug 13:00

between 16. aug 14:00 - 17. aug 14:00

wind 5 knots from NE (050°) Clear sky Max temperature 22° expected today at around 17 o'clock Min temperature 06° expected tomorrow at around 12 o'clock

becoming between 16. aug 20:00 - 16. aug 23:00

wind 10 knots from S (180°) scattered clouds (~50% cover) at 3000 feet
Martín Miguel de Güemes International Airport in Argentina at 1216m

Latest 5 airports